Time;durP1;ratioP1;P1;durP2;ratioP2;P2;SDS_P1;SDS_P2;PMS_P1;PMS_P2;Temp;Humidity;BMP_temperature;BMP_pressure;BME280_temperature;BME280_humidity;BME280_pressure;Samples;Min_cycle;Max_cycle;Signal;HPM_P1;HPM_P2
2021/01/10 13:07:47;;;;;;;;;;;3.70;99.90;;;;;;5010297;28;20262;-76
2021/01/10 13:10:13;;;;;;;;;;;3.10;99.90;;;;;;4998054;28;19953;-74
2021/01/10 13:12:41;;;;;;;;;;;3.70;99.90;;;;;;4997685;28;20429;-75
2021/01/10 13:15:09;;;;;;;;;;;3.70;99.90;;;;;;4997906;28;19969;-80
2021/01/10 13:17:36;;;;;;;;;;;3.70;99.90;;;;;;4997934;28;20003;-79
2021/01/10 13:20:04;;;;;;;;;;;3.70;99.90;;;;;;4997014;28;19926;-77
2021/01/10 13:22:31;;;;;;;;;;;3.80;99.90;;;;;;4996839;28;20383;-77
2021/01/10 13:24:59;;;;;;;;;;;3.70;99.90;;;;;;4997873;28;20364;-77
2021/01/10 13:27:27;;;;;;;;;;;3.80;99.90;;;;;;4997879;28;20251;-74
2021/01/10 13:29:56;;;;;;;;;;;3.80;99.90;;;;;;5000262;28;19926;-76
2021/01/10 13:32:24;;;;;;;;;;;3.90;99.90;;;;;;4997177;28;19926;-76
2021/01/10 13:34:51;;;;;;;;;;;3.90;99.90;;;;;;4997335;28;20347;-75
2021/01/10 13:37:22;;;;;;;;;;;3.90;99.90;;;;;;4995109;28;19926;-75
2021/01/10 13:39:49;;;;;;;;;;;3.90;99.90;;;;;;4993123;28;20354;-75
2021/01/10 13:42:18;;;;;;;;;;;3.80;99.90;;;;;;4995787;28;20490;-75
2021/01/10 13:44:45;;;;;;;;;;;3.80;99.90;;;;;;4996262;28;19936;-75
2021/01/10 13:47:13;;;;;;;;;;;3.90;99.90;;;;;;4996380;28;19936;-75
2021/01/10 13:49:39;;;;;;;;;;;3.90;99.90;;;;;;4996300;28;19925;-75
2021/01/10 13:52:09;;;;;;;;;;;3.90;99.90;;;;;;4995950;28;19926;-75
2021/01/10 13:54:36;;;;;;;;;;;3.90;99.90;;;;;;4995992;28;19936;-75
2021/01/10 13:57:04;;;;;;;;;;;3.90;99.90;;;;;;4996116;28;20247;-75
2021/01/10 13:59:33;;;;;;;;;;;3.90;99.90;;;;;;4996298;28;20332;-75
2021/01/10 14:02:07;;;;;;;;;;;3.90;99.90;;;;;;5000047;28;19925;-75
2021/01/10 14:04:43;;;;;;;;;;;3.90;99.90;;;;;;4995749;28;19988;-75
2021/01/10 14:07:10;;;;;;;;;;;3.90;99.90;;;;;;5008848;28;19965;-75
2021/01/10 14:09:40;;;;;;;;;;;3.90;99.90;;;;;;5015866;28;19925;-75
2021/01/10 14:12:12;;;;;;;;;;;3.90;99.90;;;;;;5015785;28;19926;-75
2021/01/10 14:14:42;;;;;;;;;;;3.90;99.90;;;;;;5015119;28;20024;-74
2021/01/10 14:17:09;;;;;;;;;;;4.00;99.90;;;;;;5015917;28;19990;-76
2021/01/10 14:19:37;;;;;;;;;;;4.00;99.90;;;;;;5016472;28;19983;-76
2021/01/10 14:22:04;;;;;;;;;;;4.00;99.90;;;;;;5015595;28;20354;-76
2021/01/10 14:24:31;;;;;;;;;;;4.00;99.90;;;;;;5015667;28;19936;-77
2021/01/10 14:26:57;;;;;;;;;;;4.00;99.90;;;;;;5015843;28;19926;-75
2021/01/10 14:29:24;;;;;;;;;;;4.00;99.90;;;;;;5015125;28;19925;-75
2021/01/10 14:31:52;;;;;;;;;;;4.00;99.90;;;;;;5034400;28;19929;-75
2021/01/10 14:34:19;;;;;;;;;;;4.00;99.90;;;;;;5035125;28;20309;-76
2021/01/10 14:36:45;;;;;;;;;;;4.10;99.90;;;;;;5035058;28;19933;-76
2021/01/10 14:39:13;;;;;;;;;;;4.10;99.90;;;;;;5034377;28;20357;-76
2021/01/10 14:41:40;;;;;;;;;;;4.10;99.90;;;;;;5017524;28;19968;-76
2021/01/10 14:44:08;;;;;;;;;;;4.10;99.90;;;;;;5027415;28;19925;-76
2021/01/10 14:46:36;;;;;;;;;;;4.20;99.90;;;;;;5015218;28;19929;-76
2021/01/10 14:49:05;;;;;;;;;;;4.20;99.90;;;;;;5015329;28;19936;-78
2021/01/10 14:51:32;;;;;;;;;;;4.20;99.90;;;;;;5015232;28;19991;-77
2021/01/10 14:54:00;;;;;;;;;;;4.10;99.90;;;;;;5015270;28;19926;-76
2021/01/10 14:56:28;;;;;;;;;;;4.10;99.90;;;;;;5014951;28;20365;-75
2021/01/10 14:58:56;;;;;;;;;;;4.10;99.90;;;;;;5014888;28;19925;-76
2021/01/10 15:01:24;;;;;;;;;;;4.10;99.90;;;;;;5016109;28;20270;-75
2021/01/10 15:03:54;;;;;;;;;;;4.10;99.90;;;;;;5015158;28;19925;-75
2021/01/10 15:06:23;;;;;;;;;;;4.20;99.90;;;;;;5014474;28;20370;-76
2021/01/10 15:08:53;;;;;;;;;;;4.20;99.90;;;;;;5014547;28;19929;-76
2021/01/10 15:11:22;;;;;;;;;;;4.20;99.90;;;;;;5014866;28;19925;-76
2021/01/10 15:13:50;;;;;;;;;;;4.20;99.90;;;;;;5014772;28;20092;-76
2021/01/10 15:16:19;;;;;;;;;;;4.20;99.90;;;;;;5013180;28;19925;-76
2021/01/10 15:18:47;;;;;;;;;;;4.20;99.90;;;;;;5014894;28;19925;-76
2021/01/10 15:21:15;;;;;;;;;;;4.20;99.90;;;;;;5014758;28;19937;-76
2021/01/10 15:23:43;;;;;;;;;;;4.20;99.90;;;;;;5014757;28;20276;-75
2021/01/10 15:26:10;;;;;;;;;;;4.30;99.90;;;;;;5016448;28;19933;-76
2021/01/10 15:28:36;;;;;;;;;;;4.20;99.90;;;;;;5018294;28;19925;-76
2021/01/10 15:31:05;;;;;;;;;;;4.20;99.90;;;;;;5018111;28;19929;-75
2021/01/10 15:33:32;;;;;;;;;;;4.20;99.90;;;;;;5015739;28;19934;-76
2021/01/10 15:36:00;;;;;;;;;;;4.20;99.90;;;;;;5015242;28;19925;-77
2021/01/10 15:38:28;;;;;;;;;;;4.20;99.90;;;;;;5015632;28;19929;-76
2021/01/10 15:40:57;;;;;;;;;;;4.20;99.90;;;;;;5014753;28;19937;-76
2021/01/10 15:43:25;;;;;;;;;;;4.20;99.90;;;;;;5016801;28;19936;-76
2021/01/10 15:45:52;;;;;;;;;;;4.30;99.90;;;;;;5018178;28;19925;-76
2021/01/10 15:48:20;;;;;;;;;;;4.20;99.90;;;;;;5017341;28;20380;-77
2021/01/10 15:50:47;;;;;;;;;;;4.20;99.90;;;;;;5017802;28;20365;-76
2021/01/10 15:53:13;;;;;;;;;;;4.30;99.90;;;;;;5017918;28;20239;-76
2021/01/10 15:55:40;;;;;;;;;;;4.20;99.90;;;;;;5017907;28;19934;-76
2021/01/10 15:58:07;;;;;;;;;;;4.30;99.90;;;;;;5017446;28;19926;-76
2021/01/10 16:00:33;;;;;;;;;;;4.20;99.90;;;;;;5011558;28;20384;-76
2021/01/10 16:03:08;;;;;;;;;;;4.30;99.90;;;;;;5003031;28;19926;-76
2021/01/10 16:05:37;;;;;;;;;;;4.30;99.90;;;;;;5012360;28;19936;-77
2021/01/10 16:08:11;;;;;;;;;;;4.30;99.90;;;;;;5014969;28;19941;-76
2021/01/10 16:10:39;;;;;;;;;;;4.20;99.90;;;;;;5016825;28;20016;-76
2021/01/10 16:13:08;;;;;;;;;;;4.30;99.90;;;;;;5016685;28;19933;-76
2021/01/10 16:15:39;;;;;;;;;;;4.20;99.90;;;;;;5016554;28;19932;-76
2021/01/10 16:18:09;;;;;;;;;;;4.30;99.90;;;;;;5010975;28;20425;-76
2021/01/10 16:20:36;;;;;;;;;;;4.30;99.90;;;;;;5016506;28;19973;-77
2021/01/10 16:23:04;;;;;;;;;;;4.30;99.90;;;;;;5000405;28;20354;-76
2021/01/10 16:25:32;;;;;;;;;;;4.20;99.90;;;;;;4997989;28;19937;-76
2021/01/10 16:27:59;;;;;;;;;;;4.20;99.90;;;;;;5000003;28;19947;-76
2021/01/10 16:30:26;;;;;;;;;;;4.30;99.90;;;;;;5004826;28;19933;-75
2021/01/10 16:32:54;;;;;;;;;;;4.20;99.90;;;;;;5016897;28;19926;-75
2021/01/10 16:35:21;;;;;;;;;;;4.30;99.90;;;;;;5016588;28;20347;-75
2021/01/10 16:37:47;;;;;;;;;;;4.30;99.90;;;;;;5017748;28;20258;-76
2021/01/10 16:40:15;;;;;;;;;;;4.30;99.90;;;;;;5016881;28;19925;-76
2021/01/10 16:42:42;;;;;;;;;;;4.30;99.90;;;;;;5016958;28;20424;-76
2021/01/10 16:45:10;;;;;;;;;;;4.30;99.90;;;;;;5016984;28;19986;-76
2021/01/10 16:47:40;;;;;;;;;;;4.30;99.90;;;;;;5017375;28;19926;-76
2021/01/10 16:50:10;;;;;;;;;;;4.20;99.90;;;;;;5016837;28;19934;-76
2021/01/10 16:52:37;;;;;;;;;;;4.30;99.90;;;;;;5016988;28;19925;-76
2021/01/10 16:55:05;;;;;;;;;;;4.30;99.90;;;;;;5016781;28;19980;-76
2021/01/10 16:57:33;;;;;;;;;;;4.20;99.90;;;;;;5016910;28;19925;-76
2021/01/10 17:00:00;;;;;;;;;;;4.30;99.90;;;;;;5016887;28;19936;-76
2021/01/10 17:02:28;;;;;;;;;;;4.30;99.90;;;;;;5016637;28;19933;-76
2021/01/10 17:04:56;;;;;;;;;;;4.30;99.90;;;;;;5016812;28;20332;-76
2021/01/10 17:07:27;;;;;;;;;;;4.30;99.90;;;;;;5016409;28;20063;-76
2021/01/10 17:09:55;;;;;;;;;;;4.40;99.90;;;;;;5016577;28;19936;-76
2021/01/10 17:12:21;;;;;;;;;;;4.30;99.90;;;;;;5015958;28;19936;-76
2021/01/10 17:14:49;;;;;;;;;;;4.30;99.90;;;;;;5016373;28;20242;-76
2021/01/10 17:17:17;;;;;;;;;;;4.40;99.90;;;;;;5010790;28;19944;-76
2021/01/10 17:19:44;;;;;;;;;;;4.30;99.90;;;;;;4996677;28;20335;-75
2021/01/10 17:22:11;;;;;;;;;;;4.30;99.90;;;;;;4996639;28;19936;-75
2021/01/10 17:24:39;;;;;;;;;;;4.40;99.90;;;;;;4996501;28;19992;-75
2021/01/10 17:27:07;;;;;;;;;;;4.40;99.90;;;;;;4996576;28;20338;-75
2021/01/10 17:29:35;;;;;;;;;;;4.40;99.90;;;;;;4996286;28;20270;-75
2021/01/10 17:32:01;;;;;;;;;;;4.30;99.90;;;;;;4987744;28;19932;-75
2021/01/10 17:34:29;;;;;;;;;;;4.30;99.90;;;;;;4977160;28;19992;-75
2021/01/10 17:36:57;;;;;;;;;;;4.30;99.90;;;;;;4977299;28;19956;-75
2021/01/10 17:39:24;;;;;;;;;;;4.30;99.90;;;;;;4976888;28;19926;-75
2021/01/10 17:41:53;;;;;;;;;;;4.30;99.90;;;;;;4977077;28;19933;-75
2021/01/10 17:44:21;;;;;;;;;;;4.30;99.90;;;;;;4977112;28;19934;-75
2021/01/10 17:46:52;;;;;;;;;;;4.30;99.90;;;;;;4977009;28;20274;-75
2021/01/10 17:49:19;;;;;;;;;;;4.30;99.90;;;;;;4976237;28;20036;-76
2021/01/10 17:51:47;;;;;;;;;;;4.30;99.90;;;;;;4977015;28;19969;-76
2021/01/10 17:54:15;;;;;;;;;;;4.30;99.90;;;;;;4976930;28;20017;-75
2021/01/10 17:56:42;;;;;;;;;;;4.30;99.90;;;;;;4976874;28;19957;-75
2021/01/10 17:59:14;;;;;;;;;;;4.30;99.90;;;;;;4976741;28;19926;-75
2021/01/10 18:01:42;;;;;;;;;;;4.30;99.90;;;;;;4976581;28;19933;-75
2021/01/10 18:04:10;;;;;;;;;;;4.30;99.90;;;;;;4976505;28;20369;-76
2021/01/10 18:06:37;;;;;;;;;;;4.30;99.90;;;;;;4976623;28;19988;-76
2021/01/10 18:09:05;;;;;;;;;;;4.30;99.90;;;;;;4976770;28;19937;-75
2021/01/10 18:11:32;;;;;;;;;;;4.30;99.90;;;;;;4976806;28;19926;-75
2021/01/10 18:14:00;;;;;;;;;;;4.30;99.90;;;;;;4976422;28;19933;-76
2021/01/10 18:16:27;;;;;;;;;;;4.30;99.90;;;;;;5187638;23;19977;-79
2021/01/10 18:18:58;;;;;;;;;;;4.40;99.90;;;;;;5022537;28;19925;-76
2021/01/10 18:21:27;;;;;;;;;;;4.30;99.90;;;;;;5025529;28;19930;-77
2021/01/10 18:23:53;;;;;;;;;;;4.30;99.90;;;;;;5421228;23;19964;-79
2021/01/10 18:26:21;;;;;;;;;;;4.30;99.90;;;;;;5034532;28;19965;-78
2021/01/10 18:28:47;;;;;;;;;;;4.30;99.90;;;;;;5028913;28;19936;-76
2021/01/10 18:31:14;;;;;;;;;;;4.40;99.90;;;;;;5027793;28;19933;-75
2021/01/10 18:33:41;;;;;;;;;;;4.40;99.90;;;;;;5081698;23;19926;-76
2021/01/10 18:36:07;;;;;;;;;;;4.30;99.90;;;;;;5015495;28;19926;-76
2021/01/10 18:38:34;;;;;;;;;;;4.40;99.90;;;;;;5015032;28;19930;-76
2021/01/10 18:41:00;;;;;;;;;;;4.40;99.90;;;;;;5015011;28;19936;-76
2021/01/10 18:43:27;;;;;;;;;;;4.40;99.90;;;;;;5008416;28;20327;-76
2021/01/10 18:45:54;;;;;;;;;;;4.40;99.90;;;;;;5009057;28;19925;-76
2021/01/10 18:48:20;;;;;;;;;;;4.30;99.90;;;;;;5014408;28;20261;-75
2021/01/10 18:50:48;;;;;;;;;;;4.40;99.90;;;;;;5014763;28;20321;-75
2021/01/10 18:53:15;;;;;;;;;;;4.40;99.90;;;;;;5014820;28;19925;-75
2021/01/10 18:55:44;;;;;;;;;;;4.40;99.90;;;;;;5014787;28;19925;-75
2021/01/10 18:58:13;;;;;;;;;;;4.40;99.90;;;;;;5014485;28;19933;-75
2021/01/10 19:00:46;;;;;;;;;;;4.40;99.90;;;;;;5020156;28;20015;-77
2021/01/10 19:03:13;;;;;;;;;;;4.40;99.90;;;;;;5018023;28;19929;-76
2021/01/10 19:05:42;;;;;;;;;;;4.40;99.90;;;;;;5018298;28;19925;-76
2021/01/10 19:08:10;;;;;;;;;;;4.40;99.90;;;;;;5017574;28;20040;-75
2021/01/10 19:10:39;;;;;;;;;;;4.40;99.90;;;;;;5007309;28;20386;-75
2021/01/10 19:13:10;;;;;;;;;;;4.40;99.90;;;;;;5017370;28;19926;-76
2021/01/10 19:15:43;;;;;;;;;;;4.40;99.90;;;;;;5017789;28;20370;-76
2021/01/10 19:18:09;;;;;;;;;;;4.40;99.90;;;;;;5018259;28;19929;-76
2021/01/10 19:20:41;;;;;;;;;;;4.40;99.90;;;;;;5017211;28;19935;-76
2021/01/10 19:23:10;;;;;;;;;;;4.40;99.90;;;;;;5017320;28;19925;-76
2021/01/10 19:25:38;;;;;;;;;;;4.40;99.90;;;;;;5020407;28;20157;-78
2021/01/10 19:28:05;;;;;;;;;;;4.40;99.90;;;;;;5019973;28;19987;-77
2021/01/10 19:30:31;;;;;;;;;;;4.40;99.90;;;;;;5017256;28;19995;-77
2021/01/10 19:32:58;;;;;;;;;;;4.40;99.90;;;;;;5016585;28;20020;-75
2021/01/10 19:35:25;;;;;;;;;;;4.40;99.90;;;;;;5019588;28;19983;-76
2021/01/10 19:37:52;;;;;;;;;;;4.50;99.90;;;;;;5018848;28;19926;-76
2021/01/10 19:40:20;;;;;;;;;;;4.50;99.90;;;;;;5016929;28;19926;-75
2021/01/10 19:42:47;;;;;;;;;;;4.50;99.90;;;;;;5018700;28;19984;-75
2021/01/10 19:45:14;;;;;;;;;;;4.50;99.90;;;;;;5017418;28;19948;-75
2021/01/10 19:47:53;;;;;;;;;;;4.50;99.90;;;;;;5020159;28;19909;-75
2021/01/10 19:50:22;;;;;;;;;;;4.50;99.90;;;;;;5019215;28;20083;-77
2021/01/10 19:52:51;;;;;;;;;;;4.50;99.90;;;;;;5020608;28;19933;-77
2021/01/10 19:55:19;;;;;;;;;;;4.50;99.90;;;;;;5018268;28;19926;-77
2021/01/10 19:57:50;;;;;;;;;;;4.50;99.90;;;;;;5019209;28;20330;-77
2021/01/10 20:00:24;;;;;;;;;;;4.50;99.90;;;;;;5018316;28;20348;-76
2021/01/10 20:02:52;;;;;;;;;;;4.50;99.90;;;;;;5017234;28;19940;-76
2021/01/10 20:05:18;;;;;;;;;;;4.50;99.90;;;;;;5012426;28;19926;-76
2021/01/10 20:07:44;;;;;;;;;;;4.50;99.90;;;;;;5017284;28;20295;-76
2021/01/10 20:10:14;;;;;;;;;;;4.60;99.90;;;;;;5017617;28;19933;-76
2021/01/10 20:12:41;;;;;;;;;;;4.60;99.90;;;;;;5016640;28;20392;-75
2021/01/10 20:15:08;;;;;;;;;;;4.60;99.90;;;;;;5016698;28;20265;-76
2021/01/10 20:17:43;;;;;;;;;;;4.60;99.90;;;;;;5016160;28;20295;-75
2021/01/10 20:20:14;;;;;;;;;;;4.60;99.90;;;;;;5016009;28;19980;-75
2021/01/10 20:22:40;;;;;;;;;;;4.60;99.90;;;;;;5017019;28;19925;-75
2021/01/10 20:25:08;;;;;;;;;;;4.60;99.90;;;;;;5015295;28;19925;-75
2021/01/10 20:27:36;;;;;;;;;;;4.60;99.90;;;;;;5016878;28;19926;-75
2021/01/10 20:30:03;;;;;;;;;;;4.60;99.90;;;;;;5016264;28;20313;-75
2021/01/10 20:32:30;;;;;;;;;;;4.60;99.90;;;;;;5016777;28;19934;-76
2021/01/10 20:34:57;;;;;;;;;;;4.60;99.90;;;;;;5016224;28;20016;-75
2021/01/10 20:37:23;;;;;;;;;;;4.60;99.90;;;;;;5004976;28;19991;-75
2021/01/10 20:39:50;;;;;;;;;;;4.50;99.90;;;;;;4999596;28;19936;-75
2021/01/10 20:42:18;;;;;;;;;;;4.60;99.90;;;;;;5015670;28;20020;-75
2021/01/10 20:44:47;;;;;;;;;;;4.60;99.90;;;;;;5016146;28;20445;-75
2021/01/10 20:47:15;;;;;;;;;;;4.60;99.90;;;;;;5016937;28;19929;-75
2021/01/10 20:49:44;;;;;;;;;;;4.60;99.90;;;;;;5016507;28;19972;-75
2021/01/10 20:52:12;;;;;;;;;;;4.60;99.90;;;;;;5015348;28;20393;-75
2021/01/10 20:54:39;;;;;;;;;;;4.60;99.90;;;;;;5014559;28;20039;-75
2021/01/10 20:57:07;;;;;;;;;;;4.60;99.90;;;;;;5013876;28;19925;-75
2021/01/10 20:59:36;;;;;;;;;;;4.60;99.90;;;;;;5016299;28;19925;-76
2021/01/10 21:02:05;;;;;;;;;;;4.60;99.90;;;;;;5016745;28;20369;-76
2021/01/10 21:04:33;;;;;;;;;;;4.60;99.90;;;;;;5016725;28;20261;-75
2021/01/10 21:07:01;;;;;;;;;;;4.50;99.90;;;;;;5016643;28;19941;-75
2021/01/10 21:09:29;;;;;;;;;;;4.50;99.90;;;;;;5016166;28;19932;-75
2021/01/10 21:11:56;;;;;;;;;;;4.50;99.90;;;;;;5017234;28;20362;-74
2021/01/10 21:14:23;;;;;;;;;;;4.50;99.90;;;;;;5018246;28;19932;-79
2021/01/10 21:16:51;;;;;;;;;;;4.50;99.90;;;;;;5021760;28;19935;-79
2021/01/10 21:19:19;;;;;;;;;;;4.50;99.90;;;;;;5019083;28;19936;-76
2021/01/10 21:21:46;;;;;;;;;;;4.50;99.90;;;;;;5016783;28;19926;-76
2021/01/10 21:24:14;;;;;;;;;;;4.50;99.90;;;;;;5015002;28;20354;-76
2021/01/10 21:26:40;;;;;;;;;;;4.50;99.90;;;;;;5016148;28;19925;-76
2021/01/10 21:29:07;;;;;;;;;;;4.50;99.90;;;;;;5015926;28;19925;-76
2021/01/10 21:31:33;;;;;;;;;;;4.50;99.90;;;;;;5016229;28;20266;-76
2021/01/10 21:33:59;;;;;;;;;;;4.50;99.90;;;;;;5016160;28;20278;-76
2021/01/10 21:36:26;;;;;;;;;;;4.50;99.90;;;;;;5015763;28;19926;-76
2021/01/10 21:38:53;;;;;;;;;;;4.50;99.90;;;;;;5016183;28;20370;-76
2021/01/10 21:41:26;;;;;;;;;;;4.50;99.90;;;;;;5010651;28;19948;-75
2021/01/10 21:44:00;;;;;;;;;;;4.50;99.90;;;;;;5132167;27;20058;-76
2021/01/10 21:46:26;;;;;;;;;;;4.50;99.90;;;;;;5132991;28;19966;-76
2021/01/10 21:48:53;;;;;;;;;;;4.50;99.90;;;;;;5133171;27;19924;-76
2021/01/10 21:51:19;;;;;;;;;;;4.50;99.90;;;;;;5133284;28;20006;-76
2021/01/10 21:53:46;;;;;;;;;;;4.50;99.90;;;;;;5132859;28;19955;-76
2021/01/10 21:56:15;;;;;;;;;;;4.50;99.90;;;;;;5132971;27;20000;-76
2021/01/10 21:58:42;;;;;;;;;;;4.50;99.90;;;;;;5132591;27;19928;-76
2021/01/10 22:01:14;;;;;;;;;;;4.50;99.90;;;;;;5146470;27;19927;-76
2021/01/10 22:03:41;;;;;;;;;;;4.50;99.90;;;;;;5132631;27;19924;-76
2021/01/10 22:06:12;;;;;;;;;;;4.50;99.90;;;;;;5132696;27;19966;-76
2021/01/10 22:08:39;;;;;;;;;;;4.50;99.90;;;;;;5130832;28;19923;-76
2021/01/10 22:11:06;;;;;;;;;;;4.50;99.90;;;;;;5135967;27;20225;-76
2021/01/10 22:13:33;;;;;;;;;;;4.50;99.90;;;;;;5153695;27;19927;-77
2021/01/10 22:15:59;;;;;;;;;;;4.50;99.90;;;;;;5153358;27;20367;-77
2021/01/10 22:18:26;;;;;;;;;;;4.50;99.90;;;;;;5153264;27;19924;-77
2021/01/10 22:20:53;;;;;;;;;;;4.50;99.90;;;;;;5152966;27;19931;-77
2021/01/10 22:23:19;;;;;;;;;;;4.50;99.90;;;;;;5140484;27;19927;-76
2021/01/10 22:25:45;;;;;;;;;;;4.60;99.90;;;;;;5133995;28;19923;-77
2021/01/10 22:28:12;;;;;;;;;;;4.50;99.90;;;;;;5133413;28;20336;-77
2021/01/10 22:30:38;;;;;;;;;;;4.50;99.90;;;;;;5133276;28;19927;-77
2021/01/10 22:33:05;;;;;;;;;;;4.50;99.90;;;;;;5139133;27;19927;-78
2021/01/10 22:35:32;;;;;;;;;;;4.50;99.90;;;;;;5139028;28;19934;-78
2021/01/10 22:37:58;;;;;;;;;;;4.60;99.90;;;;;;5135216;28;19938;-78
2021/01/10 22:40:25;;;;;;;;;;;4.60;99.90;;;;;;5136546;27;19924;-78
2021/01/10 22:42:51;;;;;;;;;;;4.50;99.90;;;;;;5154624;27;19932;-78
2021/01/10 22:45:18;;;;;;;;;;;4.60;99.90;;;;;;5158760;27;19987;-78
2021/01/10 22:47:44;;;;;;;;;;;4.60;99.90;;;;;;5160747;27;20366;-78
2021/01/10 22:50:11;;;;;;;;;;;4.60;99.90;;;;;;5156115;27;20359;-78
2021/01/10 22:52:38;;;;;;;;;;;4.10;99.90;;;;;;5154158;27;19929;-78
2021/01/10 22:55:05;;;;;;;;;;;4.60;99.90;;;;;;5142893;27;19979;-77
2021/01/10 22:57:31;;;;;;;;;;;4.60;99.90;;;;;;5138850;27;20283;-74
2021/01/10 22:59:58;;;;;;;;;;;4.50;99.90;;;;;;5140121;27;19923;-77
2021/01/10 23:05:04;;;;;;;;;;;6.00;99.90;;;;;;5441368;22;19952;-77
2021/01/10 23:07:30;;;;;;;;;;;5.40;99.90;;;;;;5020062;28;19939;-76
2021/01/10 23:09:58;;;;;;;;;;;4.60;99.90;;;;;;5017450;28;20380;-76
2021/01/10 23:12:26;;;;;;;;;;;4.60;99.90;;;;;;5003147;28;19926;-76
2021/01/10 23:14:52;;;;;;;;;;;4.60;99.90;;;;;;4997672;28;19926;-76
2021/01/10 23:17:18;;;;;;;;;;;4.60;99.90;;;;;;4997638;28;19983;-76
2021/01/10 23:19:45;;;;;;;;;;;4.60;99.90;;;;;;4997607;28;20243;-76
2021/01/10 23:22:11;;;;;;;;;;;4.60;99.90;;;;;;4997803;28;19925;-76
2021/01/10 23:24:38;;;;;;;;;;;4.60;99.90;;;;;;4997479;28;20369;-76
2021/01/10 23:27:06;;;;;;;;;;;4.60;99.90;;;;;;5015478;28;19929;-76
2021/01/10 23:29:32;;;;;;;;;;;4.60;99.90;;;;;;5017103;28;20024;-76
2021/01/10 23:31:58;;;;;;;;;;;4.60;99.90;;;;;;5017219;28;19925;-76
2021/01/10 23:34:25;;;;;;;;;;;4.60;99.90;;;;;;5017065;28;19929;-76
2021/01/10 23:36:51;;;;;;;;;;;4.60;99.90;;;;;;5016974;28;19960;-76
2021/01/10 23:39:17;;;;;;;;;;;4.60;99.90;;;;;;5016986;28;20249;-76
2021/01/10 23:41:49;;;;;;;;;;;4.60;99.90;;;;;;5016553;28;20338;-76
2021/01/10 23:44:16;;;;;;;;;;;4.60;99.90;;;;;;5015025;28;20355;-76
2021/01/10 23:46:42;;;;;;;;;;;4.60;99.90;;;;;;5001954;28;19988;-76
2021/01/10 23:49:09;;;;;;;;;;;4.60;99.90;;;;;;5003487;28;19999;-76
2021/01/10 23:51:37;;;;;;;;;;;4.60;99.90;;;;;;4998009;28;19926;-76
2021/01/10 23:54:04;;;;;;;;;;;4.60;99.90;;;;;;5007393;28;20318;-76
2021/01/10 23:56:30;;;;;;;;;;;4.60;99.90;;;;;;5016711;28;19936;-75
2021/01/10 23:58:56;;;;;;;;;;;4.60;99.90;;;;;;5012199;28;19948;-75
